Time;durP1;ratioP1;P1;durP2;ratioP2;P2;SDS_P1;SDS_P2;PMS_P1;PMS_P2;Temp;Humidity;BMP_temperature;BMP_pressure;BME280_temperature;BME280_humidity;BME280_pressure;Samples;Min_cycle;Max_cycle;Signal;HPM_P1;HPM_P2
2022/09/22 00:00:30;;;;;;;;;;;;;;;;;;1889024;28;7006;-67
2022/09/22 00:01:29;;;;;;;;;;;;;;;;;;1882495;28;7038;-68
2022/09/22 00:02:27;;;;;;;;;;;;;;;;;;1888189;28;7299;-67
2022/09/22 00:03:26;;;;;;;;;;;;;;;;;;1889208;28;8397;-69
2022/09/22 00:04:23;;;;;;;;;;;;;;;;;;1881433;28;7121;-66
2022/09/22 00:05:22;;;;;;;;;;;;;;;;;;1888055;28;7006;-68
2022/09/22 00:06:21;;;;;;;;;;;;;;;;;;1889678;28;7026;-68
2022/09/22 00:07:18;;;;;;;;;;;;;;;;;;1888273;28;7014;-68
2022/09/22 00:08:16;;;;;;;;;;;;;;;;;;1888821;28;7113;-67
2022/09/22 00:09:15;;;;;;;;;;;;;;;;;;1883323;28;7002;-68
2022/09/22 00:10:14;;;;;;;;;;;;;;;;;;1881799;28;7100;-67
2022/09/22 00:11:17;;;;;;;;;;;;;;;;;;1882697;28;8052;-68
2022/09/22 00:12:15;;;;;;;;;;;;;;;;;;1884610;28;7096;-66
2022/09/22 00:13:12;;;;;;;;;;;;;;;;;;1889319;28;7009;-68
2022/09/22 00:14:09;;;;;;;;;;;;;;;;;;1893575;28;7029;-68
2022/09/22 00:15:09;;;;;;;;;;;;;;;;;;1897007;28;7042;-67
2022/09/22 00:16:08;;;;;;;;;;;;;;;;;;1896777;28;7010;-68
2022/09/22 00:17:05;;;;;;;;;;;;;;;;;;1896331;28;7105;-67
2022/09/22 00:18:04;;;;;;;;;;;;;;;;;;1896842;28;7421;-67
2022/09/22 00:19:03;;;;;;;;;;;;;;;;;;1896690;28;7092;-68
2022/09/22 00:20:01;;;;;;;;;;;;;;;;;;1896519;28;7029;-68
2022/09/22 00:21:06;;;;;;;;;;;;;;;;;;1896753;28;7145;-68
2022/09/22 00:22:05;;;;;;;;;;;;;;;;;;1896557;28;7105;-68
2022/09/22 00:23:02;;;;;;;;;;;;;;;;;;1897123;28;7025;-68
2022/09/22 00:24:00;;;;;;;;;;;;;;;;;;1896981;28;7014;-69
2022/09/22 00:24:58;;;;;;;;;;;;;;;;;;1895483;28;7009;-68
2022/09/22 00:25:56;;;;;;;;;;;;;;;;;;1903532;28;7092;-69
2022/09/22 00:26:56;;;;;;;;;;;;;;;;;;1903499;28;7013;-68
2022/09/22 00:27:55;;;;;;;;;;;;;;;;;;1896830;28;7092;-67
2022/09/22 00:28:52;;;;;;;;;;;;;;;;;;1896825;28;7092;-68
2022/09/22 00:29:50;;;;;;;;;;;;;;;;;;1897078;28;7005;-68
2022/09/22 00:30:48;;;;;;;;;;;;;;;;;;1896953;28;7388;-67
2022/09/22 00:31:45;;;;;;;;;;;;;;;;;;1896381;28;7013;-66
2022/09/22 00:32:42;;;;;;;;;;;;;;;;;;1896635;28;7009;-68
2022/09/22 00:33:41;;;;;;;;;;;;;;;;;;1896765;28;7010;-67
2022/09/22 00:34:38;;;;;;;;;;;;;;;;;;1896681;28;7038;-67
2022/09/22 00:35:37;;;;;;;;;;;;;;;;;;1896862;28;7042;-68
2022/09/22 00:36:34;;;;;;;;;;;;;;;;;;1897103;28;7067;-67
2022/09/22 00:37:32;;;;;;;;;;;;;;;;;;1896553;28;9701;-67
2022/09/22 00:38:29;;;;;;;;;;;;;;;;;;1895840;28;7002;-68
2022/09/22 00:39:29;;;;;;;;;;;;;;;;;;1896688;28;7041;-66
2022/09/22 00:40:26;;;;;;;;;;;;;;;;;;1897162;28;7009;-67
2022/09/22 00:41:26;;;;;;;;;;;;;;;;;;1896727;28;7005;-66
2022/09/22 00:42:24;;;;;;;;;;;;;;;;;;1896887;28;7096;-68
2022/09/22 00:43:24;;;;;;;;;;;;;;;;;;1897035;28;7128;-69
2022/09/22 00:44:25;;;;;;;;;;;;;;;;;;1897202;28;7124;-69
2022/09/22 00:45:22;;;;;;;;;;;;;;;;;;1897113;28;7014;-67
2022/09/22 00:46:23;;;;;;;;;;;;;;;;;;1896907;28;7057;-67
2022/09/22 00:47:35;;;;;;;;;;;;;;;;;;1896867;28;8043;-67
2022/09/22 00:48:36;;;;;;;;;;;;;;;;;;1896611;28;7113;-67
2022/09/22 00:49:54;;;;;;;;;;;;;;;;;;1897084;28;7030;-67
2022/09/22 00:50:53;;;;;;;;;;;;;;;;;;1896595;28;7096;-69
2022/09/22 00:51:51;;;;;;;;;;;;;;;;;;1891309;28;7045;-66
2022/09/22 00:52:56;;;;;;;;;;;;;;;;;;1888987;28;7097;-68
2022/09/22 00:53:56;;;;;;;;;;;;;;;;;;1896488;28;7089;-69
2022/09/22 00:54:57;;;;;;;;;;;;;;;;;;1897127;28;7311;-68
2022/09/22 00:55:58;;;;;;;;;;;;;;;;;;1896597;28;7096;-67
2022/09/22 00:57:02;;;;;;;;;;;;;;;;;;1896475;28;7096;-68
2022/09/22 00:58:01;;;;;;;;;;;;;;;;;;1896844;28;7017;-68
2022/09/22 00:59:02;;;;;;;;;;;;;;;;;;1896626;28;7042;-69
2022/09/22 01:00:03;;;;;;;;;;;;;;;;;;1897413;28;7013;-68
2022/09/22 01:01:01;;;;;;;;;;;;;;;;;;1897330;28;8103;-68
2022/09/22 01:01:59;;;;;;;;;;;;;;;;;;1897189;28;7184;-69
2022/09/22 01:02:58;;;;;;;;;;;;;;;;;;1896507;28;7093;-67
2022/09/22 01:03:56;;;;;;;;;;;;;;;;;;1896711;28;7096;-67
2022/09/22 01:04:53;;;;;;;;;;;;;;;;;;1896558;28;7089;-67
2022/09/22 01:05:53;;;;;;;;;;;;;;;;;;1897262;28;7029;-68
2022/09/22 01:06:53;;;;;;;;;;;;;;;;;;1896439;28;7046;-69
2022/09/22 01:07:51;;;;;;;;;;;;;;;;;;1896282;28;7001;-67
2022/09/22 01:08:49;;;;;;;;;;;;;;;;;;1896418;28;7129;-68
2022/09/22 01:09:47;;;;;;;;;;;;;;;;;;1896512;28;7005;-70
2022/09/22 01:10:46;;;;;;;;;;;;;;;;;;1896565;28;7157;-69
2022/09/22 01:11:43;;;;;;;;;;;;;;;;;;1896537;28;7013;-68
2022/09/22 01:12:47;;;;;;;;;;;;;;;;;;1896035;28;7038;-67
2022/09/22 01:14:03;;;;;;;;;;;;;;;;;;1895102;28;7092;-68
2022/09/22 01:15:00;;;;;;;;;;;;;;;;;;1896763;28;7532;-67
2022/09/22 01:15:57;;;;;;;;;;;;;;;;;;1896724;28;7201;-69
2022/09/22 01:17:21;;;;;;;;;;;;;;;;;;1896651;28;7005;-67
2022/09/22 01:18:37;;;;;;;;;;;;;;;;;;1893789;28;7093;-68
2022/09/22 01:20:00;;;;;;;;;;;;;;;;;;1896419;28;7029;-67
2022/09/22 01:21:01;;;;;;;;;;;;;;;;;;1897075;28;7021;-68
2022/09/22 01:22:24;;;;;;;;;;;;;;;;;;1898092;28;7009;-68
2022/09/22 01:23:27;;;;;;;;;;;;;;;;;;1898324;28;7042;-68
2022/09/22 01:24:27;;;;;;;;;;;;;;;;;;1898365;28;7009;-67
2022/09/22 01:25:43;;;;;;;;;;;;;;;;;;1897937;28;8007;-68
2022/09/22 01:26:43;;;;;;;;;;;;;;;;;;1898398;28;7013;-68
2022/09/22 01:27:55;;;;;;;;;;;;;;;;;;1896526;28;7009;-68
2022/09/22 01:29:04;;;;;;;;;;;;;;;;;;1898438;28;7021;-68
2022/09/22 01:30:10;;;;;;;;;;;;;;;;;;1898602;28;7010;-66
2022/09/22 01:31:36;;;;;;;;;;;;;;;;;;1898234;28;7180;-68
2022/09/22 01:32:36;;;;;;;;;;;;;;;;;;1897849;28;7009;-67
2022/09/22 01:33:57;;;;;;;;;;;;;;;;;;1897925;28;7006;-66
2022/09/22 01:35:06;;;;;;;;;;;;;;;;;;1888944;28;8036;-67
2022/09/22 01:36:10;;;;;;;;;;;;;;;;;;1897861;28;7013;-66
2022/09/22 01:37:16;;;;;;;;;;;;;;;;;;1897404;28;7308;-67
2022/09/22 01:38:23;;;;;;;;;;;;;;;;;;1897680;28;7040;-66
2022/09/22 01:39:33;;;;;;;;;;;;;;;;;;1898033;28;7025;-68
2022/09/22 01:40:37;;;;;;;;;;;;;;;;;;1897025;28;7258;-69
2022/09/22 01:41:43;;;;;;;;;;;;;;;;;;1897499;28;7759;-67
2022/09/22 01:42:55;;;;;;;;;;;;;;;;;;1897946;28;7013;-68
2022/09/22 01:44:03;;;;;;;;;;;;;;;;;;1898327;28;7005;-68
2022/09/22 01:45:05;;;;;;;;;;;;;;;;;;1898163;28;7442;-69
2022/09/22 01:46:09;;;;;;;;;;;;;;;;;;1894278;28;7030;-68
2022/09/22 01:47:11;;;;;;;;;;;;;;;;;;1897673;28;7794;-69
2022/09/22 01:48:38;;;;;;;;;;;;;;;;;;1897841;28;7050;-68
2022/09/22 01:49:39;;;;;;;;;;;;;;;;;;1885192;28;7038;-68
2022/09/22 01:50:49;;;;;;;;;;;;;;;;;;1897767;28;7160;-67
2022/09/22 01:51:54;;;;;;;;;;;;;;;;;;1896899;28;7005;-69
2022/09/22 01:52:54;;;;;;;;;;;;;;;;;;1896666;28;7005;-67
2022/09/22 01:53:55;;;;;;;;;;;;;;;;;;1898001;28;7009;-69
2022/09/22 01:55:03;;;;;;;;;;;;;;;;;;1897908;28;8035;-67
2022/09/22 01:56:05;;;;;;;;;;;;;;;;;;1898016;28;7030;-66
2022/09/22 01:57:10;;;;;;;;;;;;;;;;;;1897699;28;7117;-66
2022/09/22 01:58:14;;;;;;;;;;;;;;;;;;1898012;28;8031;-68
2022/09/22 01:59:14;;;;;;;;;;;;;;;;;;1898059;28;7033;-69
2022/09/22 02:00:12;;;;;;;;;;;;;;;;;;1898367;28;7296;-68
2022/09/22 02:01:13;;;;;;;;;;;;;;;;;;1897573;28;7092;-69
2022/09/22 02:02:17;;;;;;;;;;;;;;;;;;1897711;28;7089;-68
2022/09/22 02:03:50;;;;;;;;;;;;;;;;;;1897758;28;7363;-70
2022/09/22 02:04:52;;;;;;;;;;;;;;;;;;1874809;28;7042;-66
2022/09/22 02:05:54;;;;;;;;;;;;;;;;;;1867788;29;7010;-68
2022/09/22 02:06:57;;;;;;;;;;;;;;;;;;1868436;28;7006;-68
2022/09/22 02:07:58;;;;;;;;;;;;;;;;;;1896626;28;7069;-68
2022/09/22 02:09:02;;;;;;;;;;;;;;;;;;1897775;28;7009;-67
2022/09/22 02:10:03;;;;;;;;;;;;;;;;;;1898012;28;7384;-69
2022/09/22 02:11:08;;;;;;;;;;;;;;;;;;1897947;28;7009;-68
2022/09/22 02:12:06;;;;;;;;;;;;;;;;;;1897882;28;7013;-69
2022/09/22 02:13:03;;;;;;;;;;;;;;;;;;1897726;28;7002;-67
2022/09/22 02:14:02;;;;;;;;;;;;;;;;;;1896741;28;7009;-67
2022/09/22 02:14:59;;;;;;;;;;;;;;;;;;1897615;28;7017;-66
2022/09/22 02:15:59;;;;;;;;;;;;;;;;;;1897876;28;7105;-68
2022/09/22 02:16:58;;;;;;;;;;;;;;;;;;1898369;28;7109;-67
2022/09/22 02:18:01;;;;;;;;;;;;;;;;;;1897602;28;8091;-69
2022/09/22 02:18:58;;;;;;;;;;;;;;;;;;1897632;28;8099;-66
2022/09/22 02:20:09;;;;;;;;;;;;;;;;;;1898090;28;7264;-69
2022/09/22 02:21:06;;;;;;;;;;;;;;;;;;1896672;28;7010;-66
2022/09/22 02:22:04;;;;;;;;;;;;;;;;;;1897572;28;7006;-68
2022/09/22 02:23:02;;;;;;;;;;;;;;;;;;1897724;28;7026;-66
2022/09/22 02:23:59;;;;;;;;;;;;;;;;;;1897760;28;7156;-68
2022/09/22 02:24:57;;;;;;;;;;;;;;;;;;1897683;28;7021;-67
2022/09/22 02:25:54;;;;;;;;;;;;;;;;;;1897782;28;7110;-68
2022/09/22 02:26:54;;;;;;;;;;;;;;;;;;1897859;28;7010;-68
2022/09/22 02:27:54;;;;;;;;;;;;;;;;;;1897612;28;7105;-67
2022/09/22 02:28:54;;;;;;;;;;;;;;;;;;1897655;28;7013;-68
2022/09/22 02:29:59;;;;;;;;;;;;;;;;;;1897687;28;7042;-68
2022/09/22 02:30:59;;;;;;;;;;;;;;;;;;1897932;28;7005;-67
2022/09/22 02:32:17;;;;;;;;;;;;;;;;;;1896852;28;7262;-67
2022/09/22 02:33:15;;;;;;;;;;;;;;;;;;1896830;28;7116;-69
2022/09/22 02:34:12;;;;;;;;;;;;;;;;;;1896307;28;7068;-67
2022/09/22 02:35:10;;;;;;;;;;;;;;;;;;1897655;28;7338;-68
2022/09/22 02:36:07;;;;;;;;;;;;;;;;;;1897497;28;7088;-69
2022/09/22 02:37:26;;;;;;;;;;;;;;;;;;1896838;28;7369;-67
2022/09/22 02:38:29;;;;;;;;;;;;;;;;;;1896987;28;7093;-69
2022/09/22 02:39:45;;;;;;;;;;;;;;;;;;1897364;28;7034;-68
2022/09/22 02:41:02;;;;;;;;;;;;;;;;;;1897384;28;7038;-68
2022/09/22 02:42:15;;;;;;;;;;;;;;;;;;1897870;28;7093;-66
2022/09/22 02:43:15;;;;;;;;;;;;;;;;;;1896305;28;7101;-67
2022/09/22 02:44:19;;;;;;;;;;;;;;;;;;1897682;28;8028;-68
2022/09/22 02:45:22;;;;;;;;;;;;;;;;;;1897440;28;8026;-68
2022/09/22 02:46:26;;;;;;;;;;;;;;;;;;1897365;28;7096;-67
2022/09/22 02:47:35;;;;;;;;;;;;;;;;;;1897269;28;7006;-68
2022/09/22 02:48:41;;;;;;;;;;;;;;;;;;1897073;28;7009;-67
2022/09/22 02:49:41;;;;;;;;;;;;;;;;;;1897476;28;7192;-67
2022/09/22 02:50:41;;;;;;;;;;;;;;;;;;1897402;28;7013;-67
2022/09/22 02:51:39;;;;;;;;;;;;;;;;;;1897813;28;7054;-67
2022/09/22 02:52:37;;;;;;;;;;;;;;;;;;1897560;28;7029;-69
2022/09/22 02:53:35;;;;;;;;;;;;;;;;;;1897527;28;7021;-68
2022/09/22 02:54:32;;;;;;;;;;;;;;;;;;1897622;28;7046;-67
2022/09/22 02:55:30;;;;;;;;;;;;;;;;;;1896274;28;7005;-69
2022/09/22 02:56:27;;;;;;;;;;;;;;;;;;1897704;28;7088;-66
2022/09/22 02:57:24;;;;;;;;;;;;;;;;;;1897039;28;7042;-68
2022/09/22 02:58:22;;;;;;;;;;;;;;;;;;1897750;28;7005;-69
2022/09/22 02:59:19;;;;;;;;;;;;;;;;;;1897717;28;7010;-68
2022/09/22 03:00:17;;;;;;;;;;;;;;;;;;1895693;28;7013;-68
2022/09/22 03:01:14;;;;;;;;;;;;;;;;;;1904028;28;7084;-67
2022/09/22 03:02:12;;;;;;;;;;;;;;;;;;1904271;28;7038;-67
2022/09/22 03:03:12;;;;;;;;;;;;;;;;;;1897355;28;7213;-68
2022/09/22 03:04:09;;;;;;;;;;;;;;;;;;1896935;28;7132;-69
2022/09/22 03:05:07;;;;;;;;;;;;;;;;;;1897135;28;8035;-67
2022/09/22 03:06:04;;;;;;;;;;;;;;;;;;1896713;28;7038;-66
2022/09/22 03:07:02;;;;;;;;;;;;;;;;;;1896398;28;7959;-68
2022/09/22 03:07:59;;;;;;;;;;;;;;;;;;1896144;28;7006;-69
2022/09/22 03:08:56;;;;;;;;;;;;;;;;;;1895857;28;8114;-68
2022/09/22 03:09:54;;;;;;;;;;;;;;;;;;1896941;28;7022;-68
2022/09/22 03:10:51;;;;;;;;;;;;;;;;;;1897129;28;7039;-68
2022/09/22 03:11:48;;;;;;;;;;;;;;;;;;1897526;28;7009;-67
2022/09/22 03:12:46;;;;;;;;;;;;;;;;;;1897766;28;7054;-67
2022/09/22 03:14:03;;;;;;;;;;;;;;;;;;1895647;28;7116;-67
2022/09/22 03:15:00;;;;;;;;;;;;;;;;;;1897024;28;7117;-68
2022/09/22 03:15:58;;;;;;;;;;;;;;;;;;1897343;28;7021;-67
2022/09/22 03:16:55;;;;;;;;;;;;;;;;;;1896749;28;7042;-68
2022/09/22 03:17:52;;;;;;;;;;;;;;;;;;1897113;28;7096;-68
2022/09/22 03:18:50;;;;;;;;;;;;;;;;;;1897120;28;7002;-68
2022/09/22 03:19:47;;;;;;;;;;;;;;;;;;1897261;28;7152;-69
2022/09/22 03:20:45;;;;;;;;;;;;;;;;;;1896302;28;7116;-68
2022/09/22 03:21:42;;;;;;;;;;;;;;;;;;1896927;28;7017;-67
2022/09/22 03:22:40;;;;;;;;;;;;;;;;;;1896636;28;7089;-67
2022/09/22 03:23:38;;;;;;;;;;;;;;;;;;1897176;28;7078;-67
2022/09/22 03:24:35;;;;;;;;;;;;;;;;;;1896288;28;7202;-67
2022/09/22 03:25:32;;;;;;;;;;;;;;;;;;1896367;28;7014;-68
2022/09/22 03:26:30;;;;;;;;;;;;;;;;;;1896775;28;7005;-67
2022/09/22 03:27:27;;;;;;;;;;;;;;;;;;1897376;28;7440;-68
2022/09/22 03:28:24;;;;;;;;;;;;;;;;;;1904155;28;7121;-67
2022/09/22 03:29:22;;;;;;;;;;;;;;;;;;1903742;28;7005;-67
2022/09/22 03:30:19;;;;;;;;;;;;;;;;;;1897134;28;7001;-68
2022/09/22 03:31:16;;;;;;;;;;;;;;;;;;1896076;28;7042;-68
2022/09/22 03:32:14;;;;;;;;;;;;;;;;;;1896851;28;7101;-68
2022/09/22 03:33:11;;;;;;;;;;;;;;;;;;1897152;28;7010;-68
2022/09/22 03:34:09;;;;;;;;;;;;;;;;;;1896077;28;7013;-67
2022/09/22 03:35:06;;;;;;;;;;;;;;;;;;1897460;28;7336;-68
2022/09/22 03:36:04;;;;;;;;;;;;;;;;;;1896932;28;8357;-67
2022/09/22 03:37:01;;;;;;;;;;;;;;;;;;1897081;28;7005;-67
2022/09/22 03:37:59;;;;;;;;;;;;;;;;;;1895716;28;7109;-68
2022/09/22 03:38:58;;;;;;;;;;;;;;;;;;1897044;28;7108;-68
2022/09/22 03:39:55;;;;;;;;;;;;;;;;;;1896960;28;7002;-67
2022/09/22 03:40:53;;;;;;;;;;;;;;;;;;1896533;28;7006;-65
2022/09/22 03:41:50;;;;;;;;;;;;;;;;;;1897603;28;7372;-67
2022/09/22 03:42:48;;;;;;;;;;;;;;;;;;1896963;28;7046;-69
2022/09/22 03:43:45;;;;;;;;;;;;;;;;;;1896504;28;7010;-68
2022/09/22 03:44:43;;;;;;;;;;;;;;;;;;1896828;28;7113;-69
2022/09/22 03:45:40;;;;;;;;;;;;;;;;;;1896791;28;7090;-68
2022/09/22 03:46:37;;;;;;;;;;;;;;;;;;1896687;28;7040;-68
2022/09/22 03:47:35;;;;;;;;;;;;;;;;;;1897311;28;7009;-67
2022/09/22 03:48:32;;;;;;;;;;;;;;;;;;1897677;28;7005;-68
2022/09/22 03:49:30;;;;;;;;;;;;;;;;;;1896161;28;7034;-68
2022/09/22 03:50:27;;;;;;;;;;;;;;;;;;1896324;28;7106;-67
2022/09/22 03:51:24;;;;;;;;;;;;;;;;;;1896666;28;7113;-67
2022/09/22 03:52:22;;;;;;;;;;;;;;;;;;1897172;28;7010;-67
2022/09/22 03:53:20;;;;;;;;;;;;;;;;;;1896865;28;7001;-69
2022/09/22 03:54:17;;;;;;;;;;;;;;;;;;1896893;28;7005;-67
2022/09/22 03:55:15;;;;;;;;;;;;;;;;;;1897694;28;7006;-68
2022/09/22 03:56:14;;;;;;;;;;;;;;;;;;1896969;28;7109;-69
2022/09/22 03:57:11;;;;;;;;;;;;;;;;;;1896244;28;7184;-69
2022/09/22 03:58:08;;;;;;;;;;;;;;;;;;1896390;28;7033;-67
2022/09/22 03:59:06;;;;;;;;;;;;;;;;;;1902897;28;7009;-68
2022/09/22 04:00:04;;;;;;;;;;;;;;;;;;1896848;28;7010;-67
2022/09/22 04:01:02;;;;;;;;;;;;;;;;;;1897247;28;7009;-68
2022/09/22 04:02:01;;;;;;;;;;;;;;;;;;1897488;28;7042;-68
2022/09/22 04:02:58;;;;;;;;;;;;;;;;;;1897288;28;7096;-67
2022/09/22 04:03:56;;;;;;;;;;;;;;;;;;1897041;28;7088;-67
2022/09/22 04:04:53;;;;;;;;;;;;;;;;;;1896325;28;7257;-67
2022/09/22 04:05:51;;;;;;;;;;;;;;;;;;1895866;28;7033;-68
2022/09/22 04:06:48;;;;;;;;;;;;;;;;;;1896766;28;7153;-68
2022/09/22 04:07:46;;;;;;;;;;;;;;;;;;1896783;28;7006;-67
2022/09/22 04:08:43;;;;;;;;;;;;;;;;;;1897434;28;7042;-69
2022/09/22 04:09:41;;;;;;;;;;;;;;;;;;1897727;28;7005;-69
2022/09/22 04:10:38;;;;;;;;;;;;;;;;;;1897226;28;7042;-69
2022/09/22 04:11:36;;;;;;;;;;;;;;;;;;1896938;28;7144;-67
2022/09/22 04:12:33;;;;;;;;;;;;;;;;;;1897418;28;7009;-68
2022/09/22 04:13:31;;;;;;;;;;;;;;;;;;1896402;28;7006;-68
2022/09/22 04:14:29;;;;;;;;;;;;;;;;;;1895561;28;7009;-68
2022/09/22 04:15:26;;;;;;;;;;;;;;;;;;1897637;28;7010;-66
2022/09/22 04:16:24;;;;;;;;;;;;;;;;;;1895904;28;7001;-68
2022/09/22 04:17:21;;;;;;;;;;;;;;;;;;1897134;28;7005;-67
2022/09/22 04:18:18;;;;;;;;;;;;;;;;;;1896830;28;7010;-66
2022/09/22 04:19:16;;;;;;;;;;;;;;;;;;1896756;28;7038;-68
2022/09/22 04:20:13;;;;;;;;;;;;;;;;;;1896845;28;7010;-67
2022/09/22 04:21:10;;;;;;;;;;;;;;;;;;1897184;28;7022;-68
2022/09/22 04:22:09;;;;;;;;;;;;;;;;;;1897107;28;7042;-68
2022/09/22 04:23:06;;;;;;;;;;;;;;;;;;1897185;28;7017;-67
2022/09/22 04:24:10;;;;;;;;;;;;;;;;;;1897147;28;7092;-68
2022/09/22 04:25:07;;;;;;;;;;;;;;;;;;1896911;28;8027;-69
2022/09/22 04:26:05;;;;;;;;;;;;;;;;;;1896688;28;7096;-67
2022/09/22 04:27:02;;;;;;;;;;;;;;;;;;1896926;28;7013;-67
2022/09/22 04:28:17;;;;;;;;;;;;;;;;;;1897069;28;7010;-68
2022/09/22 04:29:14;;;;;;;;;;;;;;;;;;1896802;28;7046;-67
2022/09/22 04:30:12;;;;;;;;;;;;;;;;;;1897332;28;7292;-68
2022/09/22 04:31:09;;;;;;;;;;;;;;;;;;1897271;28;7006;-66
2022/09/22 04:32:06;;;;;;;;;;;;;;;;;;1889204;28;7181;-68
2022/09/22 04:33:04;;;;;;;;;;;;;;;;;;1888447;28;7006;-68
2022/09/22 04:34:01;;;;;;;;;;;;;;;;;;1896316;28;7002;-69
2022/09/22 04:35:04;;;;;;;;;;;;;;;;;;1896369;28;7038;-68
2022/09/22 04:36:02;;;;;;;;;;;;;;;;;;1896534;28;7105;-67
2022/09/22 04:36:59;;;;;;;;;;;;;;;;;;1897118;28;7047;-68
2022/09/22 04:37:57;;;;;;;;;;;;;;;;;;1897166;28;7093;-67
2022/09/22 04:38:54;;;;;;;;;;;;;;;;;;1896710;28;7014;-69
2022/09/22 04:39:53;;;;;;;;;;;;;;;;;;1896856;28;8095;-67
2022/09/22 04:40:51;;;;;;;;;;;;;;;;;;1896714;28;7014;-65
2022/09/22 04:41:49;;;;;;;;;;;;;;;;;;1895618;28;7054;-68
2022/09/22 04:42:47;;;;;;;;;;;;;;;;;;1895976;28;7002;-68
2022/09/22 04:43:45;;;;;;;;;;;;;;;;;;1896759;28;7202;-68
2022/09/22 04:44:43;;;;;;;;;;;;;;;;;;1898019;28;7376;-66
2022/09/22 04:45:42;;;;;;;;;;;;;;;;;;1897116;28;7014;-67
2022/09/22 04:46:40;;;;;;;;;;;;;;;;;;1896805;28;8067;-69
2022/09/22 04:47:37;;;;;;;;;;;;;;;;;;1896604;28;7168;-69
2022/09/22 04:48:35;;;;;;;;;;;;;;;;;;1897093;28;8039;-67
2022/09/22 04:49:32;;;;;;;;;;;;;;;;;;1897162;28;7117;-68
2022/09/22 04:50:30;;;;;;;;;;;;;;;;;;1896916;28;7121;-69
2022/09/22 04:51:27;;;;;;;;;;;;;;;;;;1897790;28;7010;-68
2022/09/22 04:52:25;;;;;;;;;;;;;;;;;;1896829;28;7100;-66
2022/09/22 04:53:22;;;;;;;;;;;;;;;;;;1896903;28;7049;-68
2022/09/22 04:54:20;;;;;;;;;;;;;;;;;;1897116;28;7104;-68
2022/09/22 04:55:18;;;;;;;;;;;;;;;;;;1897378;28;7037;-68
2022/09/22 04:56:16;;;;;;;;;;;;;;;;;;1898433;28;7292;-67
2022/09/22 04:57:13;;;;;;;;;;;;;;;;;;1898737;28;7109;-67
2022/09/22 04:58:16;;;;;;;;;;;;;;;;;;1898551;28;7061;-66
2022/09/22 04:59:13;;;;;;;;;;;;;;;;;;1899094;28;7049;-68
2022/09/22 05:00:11;;;;;;;;;;;;;;;;;;1898340;28;7005;-67
2022/09/22 05:01:08;;;;;;;;;;;;;;;;;;1898566;28;7005;-69
2022/09/22 05:02:06;;;;;;;;;;;;;;;;;;1898348;28;7009;-70
2022/09/22 05:03:07;;;;;;;;;;;;;;;;;;1897866;28;7005;-66
2022/09/22 05:04:05;;;;;;;;;;;;;;;;;;1897013;28;7148;-68
2022/09/22 05:05:04;;;;;;;;;;;;;;;;;;1897175;28;7523;-69
2022/09/22 05:06:01;;;;;;;;;;;;;;;;;;1898145;28;7150;-68
2022/09/22 05:06:59;;;;;;;;;;;;;;;;;;1898145;28;7050;-69
2022/09/22 05:07:56;;;;;;;;;;;;;;;;;;1897918;28;7189;-67
2022/09/22 05:08:55;;;;;;;;;;;;;;;;;;1897349;28;7013;-69
2022/09/22 05:09:52;;;;;;;;;;;;;;;;;;1898205;28;8100;-68
2022/09/22 05:10:50;;;;;;;;;;;;;;;;;;1897884;28;7149;-67
2022/09/22 05:11:50;;;;;;;;;;;;;;;;;;1898527;28;7089;-68
2022/09/22 05:12:47;;;;;;;;;;;;;;;;;;1898901;28;7010;-67
2022/09/22 05:13:45;;;;;;;;;;;;;;;;;;1897799;28;7038;-68
2022/09/22 05:14:42;;;;;;;;;;;;;;;;;;1898162;28;7002;-67
2022/09/22 05:15:40;;;;;;;;;;;;;;;;;;1898503;28;7010;-67
2022/09/22 05:16:37;;;;;;;;;;;;;;;;;;1898384;28;7093;-69
2022/09/22 05:17:35;;;;;;;;;;;;;;;;;;1898370;28;7088;-68
2022/09/22 05:18:32;;;;;;;;;;;;;;;;;;1898262;28;7105;-68
2022/09/22 05:19:31;;;;;;;;;;;;;;;;;;1899492;28;7329;-67
2022/09/22 05:20:28;;;;;;;;;;;;;;;;;;1898290;28;8059;-67
2022/09/22 05:21:25;;;;;;;;;;;;;;;;;;1898029;28;7005;-67
2022/09/22 05:22:23;;;;;;;;;;;;;;;;;;1898334;28;8052;-67
2022/09/22 05:23:20;;;;;;;;;;;;;;;;;;1898167;28;7025;-67
2022/09/22 05:24:17;;;;;;;;;;;;;;;;;;1897821;28;7113;-67
2022/09/22 05:25:16;;;;;;;;;;;;;;;;;;1897655;28;7092;-67
2022/09/22 05:26:14;;;;;;;;;;;;;;;;;;1898617;28;7045;-65
2022/09/22 05:27:12;;;;;;;;;;;;;;;;;;1898314;28;7017;-68
2022/09/22 05:28:10;;;;;;;;;;;;;;;;;;1898287;28;7096;-66
2022/09/22 05:29:08;;;;;;;;;;;;;;;;;;1896968;28;7097;-67
2022/09/22 05:30:06;;;;;;;;;;;;;;;;;;1898680;28;7120;-68
2022/09/22 05:31:03;;;;;;;;;;;;;;;;;;1898211;28;7088;-68
2022/09/22 05:32:01;;;;;;;;;;;;;;;;;;1898423;28;7009;-66
2022/09/22 05:32:58;;;;;;;;;;;;;;;;;;1897446;28;7017;-69
2022/09/22 05:33:56;;;;;;;;;;;;;;;;;;1897351;28;7041;-68
2022/09/22 05:34:54;;;;;;;;;;;;;;;;;;1898335;28;7100;-67
2022/09/22 05:35:51;;;;;;;;;;;;;;;;;;1898144;28;7017;-67
2022/09/22 05:36:48;;;;;;;;;;;;;;;;;;1898300;28;7009;-69
2022/09/22 05:37:47;;;;;;;;;;;;;;;;;;1897374;28;7167;-68
2022/09/22 05:38:45;;;;;;;;;;;;;;;;;;1897612;28;7108;-67
2022/09/22 05:39:42;;;;;;;;;;;;;;;;;;1897957;28;7006;-69
2022/09/22 05:40:39;;;;;;;;;;;;;;;;;;1897981;28;7005;-68
2022/09/22 05:41:37;;;;;;;;;;;;;;;;;;1898047;28;7005;-66
2022/09/22 05:42:39;;;;;;;;;;;;;;;;;;1898145;28;8095;-67
2022/09/22 05:43:36;;;;;;;;;;;;;;;;;;1897879;28;7022;-67
2022/09/22 05:44:33;;;;;;;;;;;;;;;;;;1898138;28;7301;-67
2022/09/22 05:45:31;;;;;;;;;;;;;;;;;;1898153;28;7005;-68
2022/09/22 05:46:28;;;;;;;;;;;;;;;;;;1898543;28;7025;-67
2022/09/22 05:47:26;;;;;;;;;;;;;;;;;;1898071;28;7038;-68
2022/09/22 05:48:23;;;;;;;;;;;;;;;;;;1897838;28;7006;-67
2022/09/22 05:49:27;;;;;;;;;;;;;;;;;;1898348;28;7038;-68
2022/09/22 05:50:24;;;;;;;;;;;;;;;;;;1898007;28;8032;-68
2022/09/22 05:51:21;;;;;;;;;;;;;;;;;;1897896;28;7021;-68
2022/09/22 05:52:19;;;;;;;;;;;;;;;;;;1898015;28;7093;-68
2022/09/22 05:53:17;;;;;;;;;;;;;;;;;;1897948;28;7088;-67
2022/09/22 05:54:14;;;;;;;;;;;;;;;;;;1898286;28;7037;-66
2022/09/22 05:55:16;;;;;;;;;;;;;;;;;;1898349;28;7038;-69
2022/09/22 05:56:14;;;;;;;;;;;;;;;;;;1898036;28;7026;-67
2022/09/22 05:57:11;;;;;;;;;;;;;;;;;;1898218;28;7093;-67
2022/09/22 05:58:12;;;;;;;;;;;;;;;;;;1896618;28;7108;-67
2022/09/22 05:59:10;;;;;;;;;;;;;;;;;;1897713;28;7010;-70
2022/09/22 06:00:07;;;;;;;;;;;;;;;;;;1898102;28;7005;-68
2022/09/22 06:01:05;;;;;;;;;;;;;;;;;;1898080;28;7014;-69
2022/09/22 06:02:03;;;;;;;;;;;;;;;;;;1898236;28;7120;-68
2022/09/22 06:03:21;;;;;;;;;;;;;;;;;;1896957;28;7026;-66
2022/09/22 06:04:18;;;;;;;;;;;;;;;;;;1898132;28;7145;-67
2022/09/22 06:05:15;;;;;;;;;;;;;;;;;;1898053;28;7173;-68
2022/09/22 06:06:15;;;;;;;;;;;;;;;;;;1898058;28;7005;-66
2022/09/22 06:07:13;;;;;;;;;;;;;;;;;;1897685;28;7026;-68
2022/09/22 06:08:10;;;;;;;;;;;;;;;;;;1896906;28;7896;-68
2022/09/22 06:09:07;;;;;;;;;;;;;;;;;;1895739;28;7001;-68
2022/09/22 06:10:05;;;;;;;;;;;;;;;;;;1897582;28;7086;-66
2022/09/22 06:11:03;;;;;;;;;;;;;;;;;;1897432;28;7173;-68
2022/09/22 06:12:00;;;;;;;;;;;;;;;;;;1897459;28;7009;-67
2022/09/22 06:12:58;;;;;;;;;;;;;;;;;;1896855;28;7096;-67
2022/09/22 06:13:56;;;;;;;;;;;;;;;;;;1889565;28;8035;-68
2022/09/22 06:14:53;;;;;;;;;;;;;;;;;;1888470;28;7093;-68
2022/09/22 06:15:50;;;;;;;;;;;;;;;;;;1890665;28;7038;-67
2022/09/22 06:16:48;;;;;;;;;;;;;;;;;;1890776;28;7034;-68
2022/09/22 06:17:45;;;;;;;;;;;;;;;;;;1884546;28;7017;-69
2022/09/22 06:18:46;;;;;;;;;;;;;;;;;;1882874;28;7006;-69
2022/09/22 06:19:45;;;;;;;;;;;;;;;;;;1883208;28;7093;-67
2022/09/22 06:20:43;;;;;;;;;;;;;;;;;;1883143;28;7029;-66
2022/09/22 06:21:40;;;;;;;;;;;;;;;;;;1882959;28;7010;-68
2022/09/22 06:22:38;;;;;;;;;;;;;;;;;;1882796;28;7387;-68
2022/09/22 06:23:35;;;;;;;;;;;;;;;;;;1884852;28;7009;-69
2022/09/22 06:24:38;;;;;;;;;;;;;;;;;;1883059;28;7005;-66
2022/09/22 06:25:36;;;;;;;;;;;;;;;;;;1889323;28;7097;-68
2022/09/22 06:26:33;;;;;;;;;;;;;;;;;;1890031;28;7050;-70
2022/09/22 06:27:30;;;;;;;;;;;;;;;;;;1886902;28;7002;-67
2022/09/22 06:28:28;;;;;;;;;;;;;;;;;;1883270;28;7089;-68
2022/09/22 06:29:25;;;;;;;;;;;;;;;;;;1882877;28;7100;-68
2022/09/22 06:30:23;;;;;;;;;;;;;;;;;;1887137;28;7150;-70
2022/09/22 06:31:20;;;;;;;;;;;;;;;;;;1888267;28;7038;-69
2022/09/22 06:32:18;;;;;;;;;;;;;;;;;;1890144;28;7472;-67
2022/09/22 06:33:15;;;;;;;;;;;;;;;;;;1886274;28;7010;-68
2022/09/22 06:34:13;;;;;;;;;;;;;;;;;;1881133;28;8012;-68
2022/09/22 06:35:10;;;;;;;;;;;;;;;;;;1880625;28;8111;-66
2022/09/22 06:36:08;;;;;;;;;;;;;;;;;;1886844;28;7006;-67
2022/09/22 06:37:08;;;;;;;;;;;;;;;;;;1890532;28;7096;-67
2022/09/22 06:38:06;;;;;;;;;;;;;;;;;;1888900;28;7009;-69
2022/09/22 06:39:04;;;;;;;;;;;;;;;;;;1889412;28;7389;-68
2022/09/22 06:40:01;;;;;;;;;;;;;;;;;;1888689;28;7010;-67
2022/09/22 06:41:01;;;;;;;;;;;;;;;;;;1890412;28;7005;-67
2022/09/22 06:41:59;;;;;;;;;;;;;;;;;;1887660;28;7006;-67
2022/09/22 06:42:58;;;;;;;;;;;;;;;;;;1882746;28;7101;-68
2022/09/22 06:43:56;;;;;;;;;;;;;;;;;;1889390;28;7017;-68
2022/09/22 06:44:54;;;;;;;;;;;;;;;;;;1882842;28;7300;-68
2022/09/22 06:45:51;;;;;;;;;;;;;;;;;;1882784;28;7352;-68
2022/09/22 06:46:49;;;;;;;;;;;;;;;;;;1883150;28;7009;-68
2022/09/22 06:47:46;;;;;;;;;;;;;;;;;;1890094;28;7010;-67
2022/09/22 06:48:44;;;;;;;;;;;;;;;;;;1886230;28;7189;-67
2022/09/22 06:49:41;;;;;;;;;;;;;;;;;;1886199;28;7101;-68
2022/09/22 06:50:39;;;;;;;;;;;;;;;;;;1886730;28;7085;-66
2022/09/22 06:51:37;;;;;;;;;;;;;;;;;;1883123;28;7010;-67
2022/09/22 06:52:38;;;;;;;;;;;;;;;;;;1887936;28;7093;-67
2022/09/22 06:53:35;;;;;;;;;;;;;;;;;;1883161;28;7153;-67
2022/09/22 06:54:32;;;;;;;;;;;;;;;;;;1882914;28;7014;-66
2022/09/22 06:55:30;;;;;;;;;;;;;;;;;;1889689;28;7086;-68